Time,TemperatureF,DewpointF,PressureIn,WindDirection,WindDirectionDegrees,WindSpeedMPH,WindSpeedGustMPH,Humidity,HourlyPrecipIn,Conditions,Clouds,dailyrainin,SoftwareType,DateUTC
2013-02-03 00:01:00,39.0,36.0,29.03,NE,54,0.0,0.0,88,0.00,,,0.00,,2013-02-03 08:01:00,
2013-02-03 00:11:00,39.0,36.0,29.03,NE,54,0.0,0.0,88,0.00,,,0.00,,2013-02-03 08:11:00,
2013-02-03 00:22:00,39.0,36.0,29.03,NE,54,0.0,0.0,89,0.00,,,0.00,,2013-02-03 08:22:00,
2013-02-03 00:32:00,39.0,36.0,29.02,NE,54,0.0,0.0,89,0.00,,,0.00,,2013-02-03 08:32:00,
2013-02-03 00:41:00,39.0,36.0,29.02,NE,54,0.0,0.0,89,0.00,,,0.00,,2013-02-03 08:41:00,
2013-02-03 00:52:00,39.0,35.0,29.02,NE,54,0.0,0.0,87,0.00,,,0.00,,2013-02-03 08:52:00,
2013-02-03 01:02:00,38.0,34.0,29.02,NE,54,0.0,0.0,87,0.00,,,0.00,,2013-02-03 09:02:00,
2013-02-03 01:11:00,38.0,34.0,29.02,NE,54,0.0,0.0,87,0.00,,,0.00,,2013-02-03 09:11:00,
2013-02-03 01:21:00,37.0,34.0,29.01,NE,54,0.0,0.0,89,0.00,,,0.00,,2013-02-03 09:21:00,
2013-02-03 01:31:00,38.0,36.0,29.02,NE,54,0.0,0.0,91,0.00,,,0.00,,2013-02-03 09:31:00,
2013-02-03 01:41:00,38.0,36.0,29.02,NE,54,0.0,0.0,91,0.00,,,0.00,,2013-02-03 09:41:00,
2013-02-03 01:52:00,37.0,34.0,29.02,NE,54,0.0,0.0,90,0.00,,,0.00,,2013-02-03 09:52:00,
2013-02-03 02:01:00,37.0,35.0,29.02,NE,54,0.0,0.0,92,0.00,,,0.00,,2013-02-03 10:01:00,
2013-02-03 02:11:00,37.0,35.0,29.02,NE,54,0.0,0.0,92,0.00,,,0.00,,2013-02-03 10:11:00,
2013-02-03 02:21:00,37.0,35.0,29.02,NE,54,0.0,0.0,91,0.00,,,0.00,,2013-02-03 10:21:00,
2013-02-03 02:31:00,37.0,35.0,29.02,NE,54,0.0,0.0,92,0.00,,,0.00,,2013-02-03 10:31:00,
2013-02-03 02:41:00,37.0,35.0,29.02,NE,54,0.0,0.0,92,0.00,,,0.00,,2013-02-03 10:41:00,
2013-02-03 02:52:00,37.0,35.0,29.01,NE,54,0.0,0.0,91,0.00,,,0.00,,2013-02-03 10:52:00,
2013-02-03 03:01:00,36.0,34.0,29.01,NE,54,0.0,0.0,91,0.00,,,0.00,,2013-02-03 11:01:00,
2013-02-03 03:11:00,36.0,34.0,29.01,NE,54,0.0,0.0,91,0.00,,,0.00,,2013-02-03 11:11:00,
2013-02-03 03:22:00,35.0,33.0,29.01,NE,54,0.0,0.0,91,0.00,,,0.00,,2013-02-03 11:22:00,
2013-02-03 03:31:00,36.0,34.0,29.00,NE,54,0.0,0.0,93,0.00,,,0.00,,2013-02-03 11:31:00,
2013-02-03 03:41:00,36.0,34.0,29.00,NE,54,0.0,0.0,93,0.00,,,0.00,,2013-02-03 11:41:00,
2013-02-03 03:52:00,35.0,33.0,29.00,NE,54,0.0,1.0,92,0.00,,,0.00,,2013-02-03 11:52:00,
2013-02-03 04:02:00,35.0,33.0,29.00,NE,54,0.0,0.0,91,0.00,,,0.00,,2013-02-03 12:02:00,
2013-02-03 04:11:00,35.0,33.0,29.00,NE,54,0.0,0.0,91,0.00,,,0.00,,2013-02-03 12:11:00,
2013-02-03 04:21:00,34.0,32.0,29.00,NE,54,0.0,0.0,91,0.00,,,0.00,,2013-02-03 12:21:00,
2013-02-03 04:32:00,34.0,32.0,29.00,NE,54,0.0,0.0,93,0.00,,,0.00,,2013-02-03 12:32:00,
2013-02-03 04:42:00,34.0,32.0,29.00,NE,54,0.0,0.0,93,0.00,,,0.00,,2013-02-03 12:42:00,
2013-02-03 04:53:00,34.0,32.0,29.00,NE,54,0.0,0.0,93,0.00,,,0.00,,2013-02-03 12:53:00,
2013-02-03 05:02:00,34.0,32.0,29.00,NE,54,0.0,0.0,93,0.00,,,0.00,,2013-02-03 13:02:00,
2013-02-03 05:11:00,34.0,32.0,29.00,NE,54,0.0,0.0,93,0.00,,,0.00,,2013-02-03 13:11:00,
2013-02-03 05:21:00,34.0,32.0,29.00,NE,54,0.0,0.0,92,0.00,,,0.00,,2013-02-03 13:21:00,
2013-02-03 05:32:00,34.0,32.0,29.01,NE,54,0.0,0.0,92,0.00,,,0.00,,2013-02-03 13:32:00,
2013-02-03 05:41:00,34.0,32.0,29.01,NE,54,0.0,0.0,92,0.00,,,0.00,,2013-02-03 13:41:00,
2013-02-03 05:52:00,33.0,31.0,29.01,NE,54,0.0,0.0,92,0.00,,,0.00,,2013-02-03 13:52:00,
2013-02-03 06:02:00,33.0,31.0,29.01,NE,54,0.0,0.0,93,0.00,,,0.00,,2013-02-03 14:02:00,
2013-02-03 06:11:00,33.0,31.0,29.01,NE,54,0.0,0.0,93,0.00,,,0.00,,2013-02-03 14:11:00,
2013-02-03 06:21:00,33.0,31.0,29.01,NE,54,0.0,0.0,93,0.00,,,0.00,,2013-02-03 14:21:00,
2013-02-03 06:31:00,32.0,30.0,29.02,NE,54,0.0,0.0,93,0.00,,,0.00,,2013-02-03 14:31:00,
2013-02-03 06:42:00,32.0,30.0,29.02,NE,54,0.0,0.0,93,0.00,,,0.00,,2013-02-03 14:42:00,
2013-02-03 06:52:00,32.0,30.0,29.01,NE,54,0.0,0.0,93,0.00,,,0.00,,2013-02-03 14:52:00,
2013-02-03 07:02:00,32.0,30.0,29.02,NE,54,0.0,0.0,93,0.00,,,0.00,,2013-02-03 15:02:00,
2013-02-03 07:11:00,32.0,30.0,29.02,NE,54,0.0,0.0,93,0.00,,,0.00,,2013-02-03 15:11:00,
2013-02-03 07:21:00,32.0,30.0,29.02,NE,54,0.0,0.0,94,0.00,,,0.00,,2013-02-03 15:21:00,
2013-02-03 07:32:00,31.0,29.0,29.02,NE,54,0.0,0.0,93,0.00,,,0.00,,2013-02-03 15:32:00,
2013-02-03 07:41:00,31.0,29.0,29.02,NE,54,0.0,0.0,93,0.00,,,0.00,,2013-02-03 15:41:00,
2013-02-03 07:52:00,32.0,30.0,29.02,NE,54,0.0,0.0,94,0.00,,,0.00,,2013-02-03 15:52:00,
2013-02-03 08:02:00,31.0,29.0,29.03,NE,54,0.0,0.0,93,0.00,,,0.00,,2013-02-03 16:02:00,
2013-02-03 08:21:00,31.0,29.0,29.03,NE,54,0.0,0.0,93,0.00,,,0.00,,2013-02-03 16:21:00,
2013-02-03 08:32:00,31.0,29.0,29.03,NE,54,0.0,0.0,94,0.00,,,0.00,,2013-02-03 16:32:00,
2013-02-03 08:41:00,31.0,29.0,29.03,NE,54,0.0,0.0,94,0.00,,,0.00,,2013-02-03 16:41:00,
2013-02-03 08:52:00,32.0,30.0,29.03,NE,54,0.0,0.0,94,0.00,,,0.00,,2013-02-03 16:52:00,
2013-02-03 09:02:00,32.0,30.0,29.03,NE,54,0.0,0.0,94,0.00,,,0.00,,2013-02-03 17:02:00,
2013-02-03 09:21:00,34.0,33.0,29.03,ESE,123,0.0,1.0,95,0.00,,,0.00,,2013-02-03 17:21:00,
2013-02-03 09:31:00,35.0,34.0,29.03,ESE,123,0.0,0.0,95,0.00,,,0.00,,2013-02-03 17:31:00,
2013-02-03 09:41:00,35.0,34.0,29.03,ESE,123,0.0,0.0,95,0.00,,,0.00,,2013-02-03 17:41:00,
2013-02-03 09:52:00,37.0,36.0,29.03,ESE,123,0.0,0.0,95,0.00,,,0.00,,2013-02-03 17:52:00,
2013-02-03 10:02:00,39.0,38.0,29.04,ESE,123,0.0,1.0,95,0.00,,,0.00,,2013-02-03 18:02:00,
2013-02-03 10:11:00,39.0,38.0,29.04,ESE,123,0.0,1.0,95,0.00,,,0.00,,2013-02-03 18:11:00,
2013-02-03 10:23:00,42.0,40.0,29.03,ESE,123,0.0,1.0,91,0.00,,,0.00,,2013-02-03 18:23:00,
2013-02-03 10:32:00,42.0,40.0,29.03,ESE,123,0.0,1.0,91,0.00,,,0.00,,2013-02-03 18:32:00,
2013-02-03 10:41:00,42.0,40.0,29.03,ESE,123,0.0,1.0,91,0.00,,,0.00,,2013-02-03 18:41:00,
2013-02-03 10:52:00,48.0,42.0,29.02,South,175,0.0,2.0,81,0.00,,,0.00,,2013-02-03 18:52:00,
2013-02-03 11:01:00,52.0,45.0,29.02,WNW,284,0.0,2.0,76,0.00,,,0.00,,2013-02-03 19:01:00,
2013-02-03 11:11:00,52.0,45.0,29.02,WNW,284,0.0,2.0,76,0.00,,,0.00,,2013-02-03 19:11:00,
2013-02-03 11:21:00,54.0,44.0,29.02,WNW,284,0.0,1.0,68,0.00,,,0.00,,2013-02-03 19:21:00,
2013-02-03 11:31:00,57.0,45.0,29.01,WNW,284,0.0,1.0,64,0.00,,,0.00,,2013-02-03 19:31:00,
2013-02-03 11:41:00,57.0,45.0,29.01,WNW,284,0.0,1.0,64,0.00,,,0.00,,2013-02-03 19:41:00,
2013-02-03 11:52:00,59.0,44.0,29.01,WNW,284,0.0,1.0,58,0.00,,,0.00,,2013-02-03 19:52:00,
2013-02-03 12:01:00,60.0,42.0,29.00,SSW,192,0.0,1.0,51,0.00,,,0.00,,2013-02-03 20:01:00,
2013-02-03 12:11:00,60.0,42.0,29.00,SSW,192,0.0,1.0,51,0.00,,,0.00,,2013-02-03 20:11:00,
2013-02-03 12:21:00,62.0,42.0,29.00,SSW,202,0.0,2.0,47,0.00,,,0.00,,2013-02-03 20:21:00,
2013-02-03 12:32:00,63.0,44.0,28.99,South,188,0.0,3.0,49,0.00,,,0.00,,2013-02-03 20:32:00,
2013-02-03 12:42:00,63.0,44.0,28.99,South,188,0.0,3.0,49,0.00,,,0.00,,2013-02-03 20:42:00,
2013-02-03 12:52:00,63.0,44.0,28.99,South,188,0.0,3.0,49,0.00,,,0.00,,2013-02-03 20:52:00,
2013-02-03 13:02:00,65.0,42.0,28.98,ESE,111,0.0,3.0,43,0.00,,,0.00,,2013-02-03 21:02:00,
2013-02-03 13:11:00,65.0,42.0,28.98,ESE,111,0.0,3.0,43,0.00,,,0.00,,2013-02-03 21:11:00,
2013-02-03 13:21:00,65.0,41.0,28.97,WNW,283,0.0,3.0,42,0.00,,,0.00,,2013-02-03 21:21:00,
2013-02-03 13:32:00,67.0,43.0,28.97,SSW,209,0.0,2.0,42,0.00,,,0.00,,2013-02-03 21:32:00,
2013-02-03 13:42:00,67.0,43.0,28.97,SSW,209,0.0,2.0,42,0.00,,,0.00,,2013-02-03 21:42:00,
2013-02-03 13:52:00,68.0,41.0,28.95,South,186,1.0,3.0,38,0.00,,,0.00,,2013-02-03 21:52:00,
2013-02-03 14:01:00,68.0,40.0,28.95,West,276,0.0,2.0,36,0.00,,,0.00,,2013-02-03 22:01:00,
2013-02-03 14:11:00,68.0,40.0,28.95,West,276,0.0,2.0,36,0.00,,,0.00,,2013-02-03 22:11:00,
2013-02-03 14:21:00,68.0,41.0,28.94,North,350,0.0,3.0,38,0.00,,,0.00,,2013-02-03 22:21:00,
2013-02-03 14:31:00,66.0,40.0,28.93,South,170,0.0,3.0,38,0.00,,,0.00,,2013-02-03 22:31:00,
2013-02-03 14:41:00,66.0,40.0,28.93,South,170,0.0,3.0,38,0.00,,,0.00,,2013-02-03 22:41:00,
2013-02-03 14:52:00,66.0,40.0,28.93,SSW,194,1.0,4.0,39,0.00,,,0.00,,2013-02-03 22:52:00,
2013-02-03 15:01:00,66.0,40.0,28.93,South,184,0.0,3.0,39,0.00,,,0.00,,2013-02-03 23:01:00,
2013-02-03 15:11:00,66.0,40.0,28.93,South,184,0.0,3.0,39,0.00,,,0.00,,2013-02-03 23:11:00,
2013-02-03 15:21:00,66.0,42.0,28.93,SW,219,0.0,2.0,41,0.00,,,0.00,,2013-02-03 23:21:00,
2013-02-03 15:32:00,66.0,40.0,28.93,ESE,113,0.0,3.0,38,0.00,,,0.00,,2013-02-03 23:32:00,
2013-02-03 15:41:00,66.0,40.0,28.93,ESE,113,0.0,3.0,38,0.00,,,0.00,,2013-02-03 23:41:00,
2013-02-03 15:52:00,66.0,39.0,28.93,ENE,67,0.0,3.0,37,0.00,,,0.00,,2013-02-03 23:52:00,
2013-02-03 16:01:00,66.0,41.0,28.93,WSW,242,0.0,3.0,40,0.00,,,0.00,,2013-02-04 00:01:00,
2013-02-03 16:11:00,66.0,41.0,28.93,WSW,242,0.0,3.0,40,0.00,,,0.00,,2013-02-04 00:11:00,
2013-02-03 16:21:00,67.0,38.0,28.93,SW,217,0.0,2.0,35,0.00,,,0.00,,2013-02-04 00:21:00,
2013-02-03 16:31:00,67.0,38.0,28.92,NNW,348,0.0,3.0,35,0.00,,,0.00,,2013-02-04 00:31:00,
2013-02-03 16:41:00,67.0,38.0,28.92,NNW,348,0.0,3.0,35,0.00,,,0.00,,2013-02-04 00:41:00,
2013-02-03 16:52:00,65.0,38.0,28.92,NNE,28,1.0,6.0,37,0.00,,,0.00,,2013-02-04 00:52:00,
2013-02-03 17:01:00,64.0,37.0,28.92,WNW,302,0.0,3.0,37,0.00,,,0.00,,2013-02-04 01:01:00,
2013-02-03 17:11:00,64.0,37.0,28.92,WNW,302,0.0,3.0,37,0.00,,,0.00,,2013-02-04 01:11:00,
2013-02-03 17:21:00,63.0,35.0,28.92,NNE,14,1.0,3.0,35,0.00,,,0.00,,2013-02-04 01:21:00,
2013-02-03 17:31:00,61.0,36.0,28.92,North,5,2.0,4.0,39,0.00,,,0.00,,2013-02-04 01:31:00,
2013-02-03 17:41:00,61.0,36.0,28.92,North,5,2.0,4.0,39,0.00,,,0.00,,2013-02-04 01:41:00,
2013-02-03 17:52:00,60.0,37.0,28.92,NW,307,0.0,3.0,42,0.00,,,0.00,,2013-02-04 01:52:00,
2013-02-03 18:01:00,59.0,37.0,28.93,North,350,0.0,2.0,44,0.00,,,0.00,,2013-02-04 02:01:00,
2013-02-03 18:11:00,59.0,37.0,28.93,North,350,0.0,2.0,44,0.00,,,0.00,,2013-02-04 02:11:00,
2013-02-03 18:21:00,58.0,38.0,28.93,ENE,70,0.0,0.0,47,0.00,,,0.00,,2013-02-04 02:21:00,
2013-02-03 18:31:00,55.0,38.0,28.94,NW,321,0.0,1.0,52,0.00,,,0.00,,2013-02-04 02:31:00,
2013-02-03 18:41:00,55.0,38.0,28.94,NW,321,0.0,1.0,52,0.00,,,0.00,,2013-02-04 02:41:00,
2013-02-03 18:52:00,54.0,38.0,28.93,WSW,254,0.0,1.0,55,0.00,,,0.00,,2013-02-04 02:52:00,
2013-02-03 19:01:00,52.0,37.0,28.94,WSW,254,0.0,0.0,57,0.00,,,0.00,,2013-02-04 03:01:00,
2013-02-03 19:11:00,52.0,37.0,28.94,WSW,254,0.0,0.0,57,0.00,,,0.00,,2013-02-04 03:11:00,
2013-02-03 19:21:00,51.0,37.0,28.94,WSW,254,0.0,0.0,59,0.00,,,0.00,,2013-02-04 03:21:00,
2013-02-03 19:31:00,50.0,38.0,28.94,WSW,254,0.0,0.0,62,0.00,,,0.00,,2013-02-04 03:31:00,
2013-02-03 19:41:00,50.0,38.0,28.94,WSW,254,0.0,0.0,62,0.00,,,0.00,,2013-02-04 03:41:00,
2013-02-03 19:52:00,49.0,38.0,28.94,WSW,254,0.0,0.0,65,0.00,,,0.00,,2013-02-04 03:52:00,
2013-02-03 20:01:00,48.0,37.0,28.94,WSW,254,0.0,0.0,65,0.00,,,0.00,,2013-02-04 04:01:00,
2013-02-03 20:11:00,48.0,37.0,28.94,WSW,254,0.0,0.0,65,0.00,,,0.00,,2013-02-04 04:11:00,
2013-02-03 20:21:00,48.0,37.0,28.94,WSW,254,0.0,0.0,65,0.00,,,0.00,,2013-02-04 04:21:00,
2013-02-03 20:31:00,46.0,37.0,28.95,West,261,0.0,0.0,71,0.00,,,0.00,,2013-02-04 04:31:00,
2013-02-03 20:41:00,46.0,37.0,28.95,West,261,0.0,0.0,71,0.00,,,0.00,,2013-02-04 04:41:00,
2013-02-03 20:52:00,46.0,37.0,28.95,West,261,0.0,0.0,72,0.00,,,0.00,,2013-02-04 04:52:00,
2013-02-03 21:03:00,45.0,37.0,28.95,West,261,0.0,0.0,74,0.00,,,0.00,,2013-02-04 05:03:00,
2013-02-03 21:11:00,45.0,37.0,28.95,West,261,0.0,0.0,74,0.00,,,0.00,,2013-02-04 05:11:00,
2013-02-03 21:22:00,44.0,36.0,28.96,West,261,0.0,1.0,73,0.00,,,0.00,,2013-02-04 05:22:00,
2013-02-03 21:33:00,44.0,37.0,28.96,West,261,0.0,0.0,76,0.00,,,0.00,,2013-02-04 05:33:00,
2013-02-03 21:41:00,44.0,37.0,28.96,West,261,0.0,0.0,76,0.00,,,0.00,,2013-02-04 05:41:00,
2013-02-03 21:52:00,43.0,36.0,28.96,West,261,0.0,0.0,77,0.00,,,0.00,,2013-02-04 05:52:00,
2013-02-03 22:01:00,42.0,36.0,28.96,West,261,0.0,0.0,79,0.00,,,0.00,,2013-02-04 06:01:00,
2013-02-03 22:11:00,42.0,36.0,28.96,West,261,0.0,0.0,79,0.00,,,0.00,,2013-02-04 06:11:00,
2013-02-03 22:21:00,42.0,37.0,28.96,West,261,0.0,0.0,81,0.00,,,0.00,,2013-02-04 06:21:00,
2013-02-03 22:31:00,41.0,36.0,28.96,WNW,295,0.0,0.0,81,0.00,,,0.00,,2013-02-04 06:31:00,
2013-02-03 22:41:00,41.0,36.0,28.96,WNW,295,0.0,0.0,81,0.00,,,0.00,,2013-02-04 06:41:00,
2013-02-03 22:52:00,41.0,35.0,28.96,WNW,295,0.0,0.0,80,0.00,,,0.00,,2013-02-04 06:52:00,
2013-02-03 23:01:00,40.0,35.0,28.96,WNW,296,0.0,0.0,83,0.00,,,0.00,,2013-02-04 07:01:00,
2013-02-03 23:11:00,40.0,35.0,28.96,WNW,296,0.0,0.0,83,0.00,,,0.00,,2013-02-04 07:11:00,
2013-02-03 23:21:00,40.0,35.0,28.95,WNW,296,0.0,0.0,83,0.00,,,0.00,,2013-02-04 07:21:00,
2013-02-03 23:31:00,40.0,36.0,28.95,WNW,296,0.0,0.0,84,0.00,,,0.00,,2013-02-04 07:31:00,
2013-02-03 23:41:00,40.0,36.0,28.95,WNW,296,0.0,0.0,84,0.00,,,0.00,,2013-02-04 07:41:00,
2013-02-03 23:52:00,40.0,35.0,28.95,WNW,296,0.0,0.0,83,0.00,,,0.00,,2013-02-04 07:52:00,